Station: Murrurundi  

  Atmospheric Gas Attenuation - ITU Rec 676-11   ----------------- dB/100km -----------------
Date Time Temp RH % AH g/m3 Dew Point Wind Direction Speed kph Gust kph Barometer mB Rainfall Since 9am 24GHz 47GHz 76GHz 122GHz 134GHz 241GHz
08/05 09:00 10.8 60 5.93 3.5 4 1013.1 0 14.0 22.5 30.7 80.2 67.4 229.3
07/05 09:00 13.7 60 7.11 6.1 19 1013.1 0 16.4 23.6 34.0 89.0 79.3 271.7
06/05 09:00 12.5 81 8.91 9.4 9 1013.1 0.1 20.3 26.8 41.7 109.6 104.2 358.8
05/05 09:00 15.5 82 10.84 12.5 0 1013.1 7 24.3 29.1 48.1 126.6 126.3 436.4
02/05 09:00 1013.1
01/05 09:00 15 70 8.98 9.7 4 1013.1 0 20.3 26.2 40.7 106.9 101.9 350.7
30/04 09:00 18 82 12.59 15 0 1013.1 0 27.9 31.2 54.0 142.4 146.6 507.4
28/04 09:00 15 68 8.72 9.3 0 1013.1 0 19.8 25.7 39.7 104.1 98.4 338.8
27/04 09:00 16 70 9.54 10.5 0 1013.1 0 21.5 26.8 42.4 111.5 107.9 372.0
24/04 09:00 13.8 80 9.53 10.4 0 1013.1 0 21.6 27.4 43.6 114.6 110.9 382.2
23/04 09:00 16 70 9.54 10.5 19 1013.1 0 21.5 26.8 42.4 111.5 107.9 372.0
22/04 09:00 15.4 48 6.31 4.6 9 1013.1 0.1 14.7 22.0 30.4 79.4 68.0 232.3
21/04 09:00 17.3 64 9.43 10.5 9 1013.1 0 21.2 26.2 41.3 108.5 104.7 360.9
20/04 09:00 14 54 6.51 5 9 1013.1 0 15.1 22.6 31.7 82.7 71.7 244.8
17/04 09:00 23 35 7.19 6.9 9 1013.1 0 16.2 21.4 30.6 80.1 71.5 245.4
16/04 09:00 19.8 92 15.71 18.5 4 1013.1 0 34.4 36.2 66.6 176.1 188.6 654.2
15/04 09:00 17.2 31 4.54 0.1 4 1013.1 0 10.9 19.1 23.8 61.6 46.8 157.7
14/04 09:00 15.5 52 6.87 5.7 0 1013.1 0 15.8 22.7 32.4 84.7 74.6 255.5
12/04 09:00 16 39 5.31 2.3 4 1013.1 0 12.5 20.4 26.7 69.4 56.0 190.1
11/04 09:00 25.6 48 11.43 13.8 4 1013.1 0.6 24.9 26.9 44.6 117.3 118.2 409.2
10/04 09:00 27.2 43 11.19 13.6 19 1013.1 0 24.3 26.0 42.8 112.7 112.9 391.0
09/04 09:00 22.6 39 7.83 8.1 4 1013.1 0 17.6 22.4 33.0 86.3 79.1 271.9
08/04 09:00 25.8 34 8.19 9.1 4 1013.1 0 18.2 22.1 32.9 86.3 80.0 275.4
07/04 09:00 25.4 39 9.18 10.7 7 1013.1 0 20.3 23.6 36.5 95.8 91.6 316.1
06/04 09:00 18 55 8.45 9 0 1013.1 0 19.1 24.5 37.2 97.5 91.4 314.4
05/04 09:00 18.1 70 10.81 12.7 4 1013.1 24.1 28.2 46.4 122.1 121.7 420.7
04/04 09:00 19.3 85 14.1 16.7 4 1013.1 0 31.0 33.4 59.7 157.6 165.7 574.3
03/04 09:00 16.9 83 11.94 14 0 1013.1 0 26.6 30.5 51.9 136.8 139.4 482.2
02/04 09:00 16.7 77 10.94 12.6 7 1013.1 0 24.4 28.9 47.8 125.8 125.8 434.5
01/04 09:00 16.8 76 10.87 12.6 0 1013.1 0 24.3 28.7 47.4 124.9 124.6 430.6
30/03 09:00 14.6 84 10.51 11.9 1013.1 0 23.6 28.8 47.2 124.3 123.2 425.3
27/03 09:00 12.5 58 6.38 4.6 19 1013.1 8 14.9 22.8 31.8 83.0 71.4 243.8
26/03 09:00 23.1 59 12.2 14.7 1013.1 0 26.7 28.8 49.0 129.2 132.0 457.1
25/03 09:00 17.5 82 12.22 14.4 0 1013.1 0 27.1 30.8 52.7 139.0 142.2 492.2
24/03 09:00 16.3 94 13.04 15.3 0 1013.1 4 29.0 32.7 57.2 150.9 156.5 541.8
23/03 09:00 18.2 85 13.21 15.7 15 1013.1 0 29.2 32.3 56.6 149.2 155.1 537.1
22/03 09:00 18 80 12.29 14.6 4 1013.1 0 27.2 30.7 52.7 138.9 142.3 492.5
19/03 09:00 19.7 92 15.62 18.3 1013.1 0 34.2 36.1 66.3 175.2 187.5 650.3
18/03 09:00 22.3 76 15.01 17.9 4 1013.1 0 32.7 33.9 61.4 162.1 172.2 597.5
17/03 09:00 23.8 46 9.89 11.7 4 1013.1 0 21.8 25.1 39.8 104.5 101.9 352.0
16/03 09:00 23.4 50 10.51 12.4 22 1013.1 0 23.1 26.1 42.3 111.2 110.0 380.3
15/03 09:00 16.4 81 11.3 13.1 0 1013.1 0 25.2 29.6 49.5 130.4 131.3 453.7
14/03 09:00 19.2 45 7.42 7 9 1013.1 0 16.8 22.6 32.9 86.1 77.7 266.5
13/03 09:00 20 73 12.61 15 4 1013.1 0 27.8 30.6 52.7 139.0 143.0 495.4
12/03 09:00 26.7 48 12.15 15 19 1013.1 0 26.4 27.6 46.7 122.9 125.4 434.6
11/03 09:00 23.1 55 11.37 13.7 28 1013.1 0 25.0 27.5 45.7 120.4 121.3 419.6
10/03 09:00 20.3 84 14.77 17.6 4 1013.1 0 32.4 34.3 61.9 163.5 173.3 601.0
09/03 09:00 20 83 14.34 17.1 1013.1 0.2 31.5 33.6 60.2 159.0 167.7 581.3
07/03 09:00 24.7 69 15.62 18.8 0 1013.1 0 33.8 34.0 62.1 164.1 175.5 609.1
06/03 09:00 26 62 15.09 18.3 0 1013.1 0.1 32.6 32.6 58.9 155.4 165.2 573.4
05/03 09:00 25.4 70 16.48 19.5 1013.1 1 35.6 35.2 65.3 172.6 186.1 646.1
04/03 09:00 22.9 73 14.92 17.9 4 1013.1 2 32.5 33.5 60.5 159.8 169.6 588.4
03/03 09:00 22.8 76 15.44 18.4 0 1013.1 0 33.6 34.4 62.9 166.1 177.3 615.2
02/03 09:00 22.2 63 12.37 14.9 0 1013.1 0 27.1 29.4 50.3 132.5 135.8 470.3
01/03 09:00 18.3 87 13.6 16.2 4 1013.1 0 30.0 32.9 58.2 153.6 160.6 556.2
28/02 09:00 22.3 76 15.01 17.9 9 1013.1 0 32.7 33.9 61.4 162.1 172.2 597.5
27/02 09:00 20.7 76 13.68 16.3 9 1013.1 0 30.0 32.2 56.8 149.9 156.7 543.0
26/02 09:00 23.5 67 14.17 17 28 1013.1 0 30.8 32.0 56.8 150.0 157.8 547.2
25/02 09:00 26 55 13.39 16.4 9 1013.1 0 29.0 29.8 51.9 136.9 142.4 494.0
24/02 09:00 22.4 75 14.89 17.8 0 1013.1 0 32.5 33.6 60.8 160.5 170.3 590.7
23/02 09:00 27.2 44 11.45 14 19 1013.1 0 24.9 26.4 43.8 115.2 116.1 402.0
22/02 09:00 28.5 45 12.58 15.7 4 1013.1 0.2 27.2 27.7 47.2 124.5 127.9 443.4
20/02 09:00 22.5 87 17.38 20.2 0 1013.1 3 37.8 38.1 72.0 190.4 207.0 718.6
19/02 09:00 25.7 63 15.08 18.3 9 1013.1 0 32.6 32.7 59.0 155.9 165.7 575.1
18/02 09:00 25.6 41 9.76 11.4 33 1013.1 0 21.5 24.4 38.4 101.0 98.1 338.9
17/02 09:00 19.5 67 11.24 13.3 0 1013.1 0 24.9 28.4 47.3 124.6 125.3 433.2
16/02 09:00 19.6 71 11.98 14.2 28 1013.1 0.2 26.5 29.6 50.3 132.6 135.1 467.5
15/02 09:00 20 69 11.92 14.1 9 1013.1 0 26.3 29.4 49.8 131.3 133.6 462.3
12/02 09:00 29.3 51 14.89 18.1 28 1013.1 0 31.9 31.1 55.6 146.9 155.7 540.6
11/02 09:00 23.4 76 15.98 18.9 0 1013.1 0 34.7 35.2 64.8 171.2 183.7 637.7
09/02 09:00 21.8 77 14.77 17.7 4 1013.1 0.2 32.3 33.7 60.7 160.3 169.9 589.3
06/02 09:00 24.8 56 12.75 15.4 4 1013.1 0 27.8 29.2 50.1 132.2 136.2 472.2
05/02 09:00 28.1 39 10.67 12.9 28 1013.1 0 23.2 25.0 40.5 106.4 105.5 365.3
04/02 09:00 20.7 67 12.06 14.5 9 1013.1 0 26.6 29.4 49.9 131.6 134.3 464.8
03/02 09:00 19.4 51 8.51 9 9 1013.1 0 19.1 24.2 36.8 96.4 90.5 311.5
02/02 09:00 18.9 78 12.64 15.1 15 1013.1 0.8 27.9 31.0 53.6 141.3 145.5 503.9
01/02 09:00 30 42 12.74 15.7 9 1013.1 0 27.4 27.5 46.9 123.8 127.4 441.9
29/01 09:00 1013.1
28/01 09:00 20.3 70 12.31 14.8 1013.1 0 27.1 30.0 51.2 135.1 138.4 479.0
27/01 09:00 21.3 64 11.93 14.2 0 1013.1 0 26.3 29.0 49.0 129.2 131.5 455.1
26/01 09:00 26 55 13.39 16.4 4 1013.1 0 29.0 29.8 51.9 136.9 142.4 494.0
25/01 09:00 29.2 51 14.81 18.1 0 1013.1 0 31.8 31.0 55.4 146.3 154.8 537.6
22/01 09:00 27 22 5.66 4 22 1013.1 0 12.9 18.6 24.5 63.6 52.5 178.8
21/01 09:00 18.8 82 13.21 15.7 19 1013.1 0 29.2 32.0 56.1 148.1 153.9 532.9
20/01 09:00 18.5 75 11.87 14.1 9 1013.1 0 26.3 29.8 50.6 133.2 135.5 468.9
19/01 09:00 20.3 67 11.78 14 15 1013.1 0 26.0 29.1 49.1 129.2 131.2 453.9
18/01 09:00 20.8 68 12.31 14.8 9 1013.1 0 27.1 29.8 50.9 134.2 137.5 476.0
17/01 09:00 19.8 78 13.32 15.9 9 1013.1 0 29.3 31.9 55.9 147.4 153.4 531.5
16/01 09:00 25.3 67 15.69 18.7 0 1013.1 2 33.9 33.9 61.9 163.7 175.1 607.8
15/01 09:00 22.5 82 16.38 19.3 15 1013.1 20 35.6 36.3 67.4 178.0 191.9 665.9
14/01 09:00 23.4 72 15.14 18.1 4 1013.1 0 32.9 33.7 61.1 161.3 171.6 595.5
13/01 09:00 19.8 78 13.32 15.9 4 1013.1 0.2 29.3 31.9 55.9 147.4 153.4 531.5
12/01 09:00 18.1 79 12.21 14.5 9 1013.1 20 27.1 30.6 52.3 137.8 141.0 487.9
11/01 09:00 26 55 13.39 16.4 9 1013.1 0 29.0 29.8 51.9 136.9 142.4 494.0
09/01 09:00 27.8 42 11.3 14 9 1013.1 0 24.5 26.0 42.9 112.9 113.4 392.7
08/01 09:00 26.7 51 12.91 15.8 28 1013.1 0 28.0 28.8 49.6 130.7 135.0 468.1
07/01 09:00 21.3 84 15.66 18.5 15 1013.1 0.2 34.2 35.5 65.1 172.0 184.1 638.8
05/01 09:00 23 67 13.77 16.6 0 1013.1 5 30.0 31.5 55.5 146.5 153.3 531.4
04/01 09:00 21.4 79 14.81 17.6 0 1013.1 10 32.4 33.9 61.2 161.6 171.4 594.4
03/01 09:00 1013.1

Last Refresh: 08-May-2026 12:10:12

Bureau of Meteorology